sensor_id;sensor_type;location;lat;lon;timestamp;P1;durP1;ratioP1;P2;durP2;ratioP2
45316;SDS011;31053;55.870;37.592;2024-03-08T00:01:16;9.70;;;3.03;;
45316;SDS011;31053;55.870;37.592;2024-03-08T00:04:20;7.07;;;2.72;;
45316;SDS011;31053;55.870;37.592;2024-03-08T00:07:25;7.22;;;2.78;;
45316;SDS011;31053;55.870;37.592;2024-03-08T00:10:32;5.97;;;2.97;;
45316;SDS011;31053;55.870;37.592;2024-03-08T00:13:36;6.22;;;2.65;;
45316;SDS011;31053;55.870;37.592;2024-03-08T00:16:41;7.13;;;2.47;;
45316;SDS011;31053;55.870;37.592;2024-03-08T00:19:48;5.25;;;2.28;;
45316;SDS011;31053;55.870;37.592;2024-03-08T00:26:01;10.05;;;2.92;;
45316;SDS011;31053;55.870;37.592;2024-03-08T00:29:08;6.28;;;2.92;;
45316;SDS011;31053;55.870;37.592;2024-03-08T00:32:13;4.82;;;2.15;;
45316;SDS011;31053;55.870;37.592;2024-03-08T00:35:17;6.25;;;2.67;;
45316;SDS011;31053;55.870;37.592;2024-03-08T00:38:22;12.23;;;2.70;;
45316;SDS011;31053;55.870;37.592;2024-03-08T00:41:28;5.85;;;2.50;;
45316;SDS011;31053;55.870;37.592;2024-03-08T00:44:33;6.13;;;2.60;;
45316;SDS011;31053;55.870;37.592;2024-03-08T00:47:37;6.30;;;2.60;;
45316;SDS011;31053;55.870;37.592;2024-03-08T00:50:42;4.60;;;2.03;;
45316;SDS011;31053;55.870;37.592;2024-03-08T00:53:50;5.57;;;2.53;;
45316;SDS011;31053;55.870;37.592;2024-03-08T00:56:54;9.73;;;3.08;;
45316;SDS011;31053;55.870;37.592;2024-03-08T01:00:02;5.95;;;3.05;;
45316;SDS011;31053;55.870;37.592;2024-03-08T01:03:08;9.15;;;2.70;;
45316;SDS011;31053;55.870;37.592;2024-03-08T01:06:13;8.30;;;3.05;;
45316;SDS011;31053;55.870;37.592;2024-03-08T01:09:17;6.88;;;2.40;;
45316;SDS011;31053;55.870;37.592;2024-03-08T01:12:22;5.05;;;2.58;;
45316;SDS011;31053;55.870;37.592;2024-03-08T01:15:27;4.72;;;2.58;;
45316;SDS011;31053;55.870;37.592;2024-03-08T01:18:32;4.57;;;2.22;;
45316;SDS011;31053;55.870;37.592;2024-03-08T01:21:37;3.35;;;1.88;;
45316;SDS011;31053;55.870;37.592;2024-03-08T01:24:41;2.92;;;1.55;;
45316;SDS011;31053;55.870;37.592;2024-03-08T01:27:46;3.65;;;2.03;;
45316;SDS011;31053;55.870;37.592;2024-03-08T01:30:51;4.65;;;2.25;;
45316;SDS011;31053;55.870;37.592;2024-03-08T01:33:59;3.60;;;1.70;;
45316;SDS011;31053;55.870;37.592;2024-03-08T01:37:04;4.60;;;2.15;;
45316;SDS011;31053;55.870;37.592;2024-03-08T01:40:09;5.43;;;2.70;;
45316;SDS011;31053;55.870;37.592;2024-03-08T01:43:21;5.30;;;2.47;;
45316;SDS011;31053;55.870;37.592;2024-03-08T01:46:27;5.28;;;2.83;;
45316;SDS011;31053;55.870;37.592;2024-03-08T01:49:32;9.73;;;2.78;;
45316;SDS011;31053;55.870;37.592;2024-03-08T01:52:37;4.10;;;2.22;;
45316;SDS011;31053;55.870;37.592;2024-03-08T01:55:42;9.65;;;2.95;;
45316;SDS011;31053;55.870;37.592;2024-03-08T01:58:46;8.80;;;2.95;;
45316;SDS011;31053;55.870;37.592;2024-03-08T02:01:51;7.10;;;2.53;;
45316;SDS011;31053;55.870;37.592;2024-03-08T02:04:56;7.18;;;2.88;;
45316;SDS011;31053;55.870;37.592;2024-03-08T02:08:01;9.15;;;3.33;;
45316;SDS011;31053;55.870;37.592;2024-03-08T02:11:06;11.38;;;3.30;;
45316;SDS011;31053;55.870;37.592;2024-03-08T02:14:11;7.32;;;2.58;;
45316;SDS011;31053;55.870;37.592;2024-03-08T02:17:16;8.43;;;3.25;;
45316;SDS011;31053;55.870;37.592;2024-03-08T02:20:21;4.88;;;2.40;;
45316;SDS011;31053;55.870;37.592;2024-03-08T02:23:25;4.65;;;2.60;;
45316;SDS011;31053;55.870;37.592;2024-03-08T02:26:31;5.10;;;2.60;;
45316;SDS011;31053;55.870;37.592;2024-03-08T02:29:35;7.68;;;3.00;;
45316;SDS011;31053;55.870;37.592;2024-03-08T02:32:41;4.38;;;2.35;;
45316;SDS011;31053;55.870;37.592;2024-03-08T02:35:45;5.57;;;2.80;;
45316;SDS011;31053;55.870;37.592;2024-03-08T02:38:51;6.65;;;2.50;;
45316;SDS011;31053;55.870;37.592;2024-03-08T02:41:56;8.93;;;3.05;;
45316;SDS011;31053;55.870;37.592;2024-03-08T02:45:00;8.45;;;3.90;;
45316;SDS011;31053;55.870;37.592;2024-03-08T02:48:05;8.48;;;3.45;;
45316;SDS011;31053;55.870;37.592;2024-03-08T02:51:10;7.75;;;3.30;;
45316;SDS011;31053;55.870;37.592;2024-03-08T02:54:14;6.13;;;2.63;;
45316;SDS011;31053;55.870;37.592;2024-03-08T02:57:21;5.88;;;2.92;;
45316;SDS011;31053;55.870;37.592;2024-03-08T03:00:26;14.27;;;3.42;;
45316;SDS011;31053;55.870;37.592;2024-03-08T03:03:31;10.65;;;3.53;;
45316;SDS011;31053;55.870;37.592;2024-03-08T03:06:36;7.80;;;2.72;;
45316;SDS011;31053;55.870;37.592;2024-03-08T03:09:41;8.07;;;3.15;;
45316;SDS011;31053;55.870;37.592;2024-03-08T03:12:46;7.38;;;3.20;;
45316;SDS011;31053;55.870;37.592;2024-03-08T03:15:53;8.88;;;2.67;;
45316;SDS011;31053;55.870;37.592;2024-03-08T03:18:57;4.68;;;2.38;;
45316;SDS011;31053;55.870;37.592;2024-03-08T03:22:03;6.75;;;2.47;;
45316;SDS011;31053;55.870;37.592;2024-03-08T03:25:09;7.60;;;2.97;;
45316;SDS011;31053;55.870;37.592;2024-03-08T03:28:15;5.63;;;2.67;;
45316;SDS011;31053;55.870;37.592;2024-03-08T03:31:22;5.40;;;2.78;;
45316;SDS011;31053;55.870;37.592;2024-03-08T03:34:27;4.70;;;2.40;;
45316;SDS011;31053;55.870;37.592;2024-03-08T03:37:33;6.25;;;3.28;;
45316;SDS011;31053;55.870;37.592;2024-03-08T03:40:38;6.53;;;2.67;;
45316;SDS011;31053;55.870;37.592;2024-03-08T03:43:49;5.97;;;2.72;;
45316;SDS011;31053;55.870;37.592;2024-03-08T03:46:53;9.80;;;2.88;;
45316;SDS011;31053;55.870;37.592;2024-03-08T03:49:58;6.68;;;3.03;;
45316;SDS011;31053;55.870;37.592;2024-03-08T03:53:08;4.93;;;2.50;;
45316;SDS011;31053;55.870;37.592;2024-03-08T03:56:13;4.75;;;2.78;;
45316;SDS011;31053;55.870;37.592;2024-03-08T03:59:17;6.78;;;3.20;;
45316;SDS011;31053;55.870;37.592;2024-03-08T04:02:22;6.07;;;3.13;;
45316;SDS011;31053;55.870;37.592;2024-03-08T04:05:27;7.70;;;3.20;;
45316;SDS011;31053;55.870;37.592;2024-03-08T04:08:32;9.05;;;3.38;;
45316;SDS011;31053;55.870;37.592;2024-03-08T04:11:38;9.93;;;3.80;;
45316;SDS011;31053;55.870;37.592;2024-03-08T04:14:43;5.97;;;3.13;;
45316;SDS011;31053;55.870;37.592;2024-03-08T04:17:48;7.32;;;3.60;;
45316;SDS011;31053;55.870;37.592;2024-03-08T04:20:53;8.43;;;3.70;;
45316;SDS011;31053;55.870;37.592;2024-03-08T04:23:58;8.52;;;4.00;;
45316;SDS011;31053;55.870;37.592;2024-03-08T04:27:02;10.70;;;5.03;;
45316;SDS011;31053;55.870;37.592;2024-03-08T04:30:07;8.38;;;4.50;;
45316;SDS011;31053;55.870;37.592;2024-03-08T04:33:12;7.70;;;3.92;;
45316;SDS011;31053;55.870;37.592;2024-03-08T04:36:21;14.80;;;5.63;;
45316;SDS011;31053;55.870;37.592;2024-03-08T04:39:26;10.68;;;4.20;;
45316;SDS011;31053;55.870;37.592;2024-03-08T04:42:34;13.07;;;4.28;;
45316;SDS011;31053;55.870;37.592;2024-03-08T04:45:39;9.57;;;3.90;;
45316;SDS011;31053;55.870;37.592;2024-03-08T04:48:46;9.75;;;3.95;;
45316;SDS011;31053;55.870;37.592;2024-03-08T04:51:51;8.85;;;4.18;;
45316;SDS011;31053;55.870;37.592;2024-03-08T04:54:55;8.70;;;3.85;;
45316;SDS011;31053;55.870;37.592;2024-03-08T04:58:00;10.68;;;4.15;;
45316;SDS011;31053;55.870;37.592;2024-03-08T05:01:04;11.38;;;5.07;;
45316;SDS011;31053;55.870;37.592;2024-03-08T05:04:09;15.73;;;5.20;;
45316;SDS011;31053;55.870;37.592;2024-03-08T05:07:13;12.77;;;5.30;;
45316;SDS011;31053;55.870;37.592;2024-03-08T05:10:18;10.13;;;4.57;;
45316;SDS011;31053;55.870;37.592;2024-03-08T05:13:23;12.27;;;4.63;;
45316;SDS011;31053;55.870;37.592;2024-03-08T05:16:27;9.63;;;4.85;;
45316;SDS011;31053;55.870;37.592;2024-03-08T05:19:31;11.40;;;4.82;;
45316;SDS011;31053;55.870;37.592;2024-03-08T05:22:36;9.77;;;4.30;;
45316;SDS011;31053;55.870;37.592;2024-03-08T05:25:41;8.57;;;4.25;;
45316;SDS011;31053;55.870;37.592;2024-03-08T05:28:45;10.43;;;4.35;;
45316;SDS011;31053;55.870;37.592;2024-03-08T05:31:51;10.32;;;4.20;;
45316;SDS011;31053;55.870;37.592;2024-03-08T05:34:56;9.85;;;4.10;;
45316;SDS011;31053;55.870;37.592;2024-03-08T05:38:02;7.40;;;3.47;;
45316;SDS011;31053;55.870;37.592;2024-03-08T05:41:06;11.32;;;3.90;;
45316;SDS011;31053;55.870;37.592;2024-03-08T05:44:13;7.05;;;3.78;;
45316;SDS011;31053;55.870;37.592;2024-03-08T05:47:17;9.85;;;4.22;;
45316;SDS011;31053;55.870;37.592;2024-03-08T05:50:22;11.52;;;3.83;;
45316;SDS011;31053;55.870;37.592;2024-03-08T05:53:26;6.00;;;3.50;;
45316;SDS011;31053;55.870;37.592;2024-03-08T05:56:32;14.48;;;3.80;;
45316;SDS011;31053;55.870;37.592;2024-03-08T05:59:37;11.50;;;4.32;;
45316;SDS011;31053;55.870;37.592;2024-03-08T06:02:42;10.45;;;4.53;;
45316;SDS011;31053;55.870;37.592;2024-03-08T06:05:47;7.40;;;3.65;;
45316;SDS011;31053;55.870;37.592;2024-03-08T06:08:54;9.25;;;4.22;;
45316;SDS011;31053;55.870;37.592;2024-03-08T06:12:00;9.85;;;4.30;;
45316;SDS011;31053;55.870;37.592;2024-03-08T06:15:06;7.68;;;3.60;;
45316;SDS011;31053;55.870;37.592;2024-03-08T06:18:11;8.77;;;3.72;;
45316;SDS011;31053;55.870;37.592;2024-03-08T06:21:16;13.75;;;4.03;;
45316;SDS011;31053;55.870;37.592;2024-03-08T06:24:21;10.05;;;4.50;;
45316;SDS011;31053;55.870;37.592;2024-03-08T06:27:25;11.48;;;4.47;;
45316;SDS011;31053;55.870;37.592;2024-03-08T06:30:30;14.63;;;4.40;;
45316;SDS011;31053;55.870;37.592;2024-03-08T06:33:35;12.23;;;4.50;;
45316;SDS011;31053;55.870;37.592;2024-03-08T06:36:40;12.88;;;5.80;;
45316;SDS011;31053;55.870;37.592;2024-03-08T06:39:44;15.68;;;5.43;;
45316;SDS011;31053;55.870;37.592;2024-03-08T06:42:49;11.15;;;4.30;;
45316;SDS011;31053;55.870;37.592;2024-03-08T06:45:55;11.30;;;4.15;;
45316;SDS011;31053;55.870;37.592;2024-03-08T06:49:00;8.07;;;4.53;;
45316;SDS011;31053;55.870;37.592;2024-03-08T06:52:05;10.40;;;4.10;;
45316;SDS011;31053;55.870;37.592;2024-03-08T06:55:10;10.30;;;4.85;;
45316;SDS011;31053;55.870;37.592;2024-03-08T06:58:17;8.00;;;4.22;;
45316;SDS011;31053;55.870;37.592;2024-03-08T07:01:22;7.68;;;3.35;;
45316;SDS011;31053;55.870;37.592;2024-03-08T07:04:27;10.18;;;4.15;;
45316;SDS011;31053;55.870;37.592;2024-03-08T07:07:34;9.35;;;4.10;;
45316;SDS011;31053;55.870;37.592;2024-03-08T07:10:38;10.98;;;4.60;;
45316;SDS011;31053;55.870;37.592;2024-03-08T07:13:45;17.70;;;4.97;;
45316;SDS011;31053;55.870;37.592;2024-03-08T07:16:50;16.25;;;4.85;;
45316;SDS011;31053;55.870;37.592;2024-03-08T07:19:55;15.43;;;4.72;;
45316;SDS011;31053;55.870;37.592;2024-03-08T07:23:01;10.07;;;5.13;;
45316;SDS011;31053;55.870;37.592;2024-03-08T07:26:06;7.32;;;4.30;;
45316;SDS011;31053;55.870;37.592;2024-03-08T07:29:11;12.57;;;4.28;;
45316;SDS011;31053;55.870;37.592;2024-03-08T07:32:15;7.13;;;3.25;;
45316;SDS011;31053;55.870;37.592;2024-03-08T07:35:26;8.68;;;4.15;;
45316;SDS011;31053;55.870;37.592;2024-03-08T07:38:31;9.52;;;4.75;;
45316;SDS011;31053;55.870;37.592;2024-03-08T07:41:35;6.57;;;3.40;;
45316;SDS011;31053;55.870;37.592;2024-03-08T07:44:40;7.55;;;3.90;;
45316;SDS011;31053;55.870;37.592;2024-03-08T07:47:44;9.73;;;4.63;;
45316;SDS011;31053;55.870;37.592;2024-03-08T07:50:49;8.63;;;4.57;;
45316;SDS011;31053;55.870;37.592;2024-03-08T07:53:54;8.57;;;3.83;;
45316;SDS011;31053;55.870;37.592;2024-03-08T07:56:59;9.93;;;4.13;;
45316;SDS011;31053;55.870;37.592;2024-03-08T08:00:04;11.00;;;4.13;;
45316;SDS011;31053;55.870;37.592;2024-03-08T08:03:13;14.27;;;4.00;;
45316;SDS011;31053;55.870;37.592;2024-03-08T08:06:17;12.45;;;4.18;;
45316;SDS011;31053;55.870;37.592;2024-03-08T08:09:22;10.70;;;3.67;;
45316;SDS011;31053;55.870;37.592;2024-03-08T08:12:32;7.72;;;4.13;;
45316;SDS011;31053;55.870;37.592;2024-03-08T08:15:38;6.17;;;2.73;;
45316;SDS011;31053;55.870;37.592;2024-03-08T08:18:42;8.65;;;4.28;;
45316;SDS011;31053;55.870;37.592;2024-03-08T08:21:48;7.22;;;3.95;;
45316;SDS011;31053;55.870;37.592;2024-03-08T08:24:53;8.93;;;3.17;;
45316;SDS011;31053;55.870;37.592;2024-03-08T08:27:57;8.52;;;4.20;;
45316;SDS011;31053;55.870;37.592;2024-03-08T08:31:01;8.30;;;3.88;;
45316;SDS011;31053;55.870;37.592;2024-03-08T08:34:09;10.05;;;4.60;;
45316;SDS011;31053;55.870;37.592;2024-03-08T08:37:15;7.05;;;3.67;;
45316;SDS011;31053;55.870;37.592;2024-03-08T08:40:20;8.10;;;4.25;;
45316;SDS011;31053;55.870;37.592;2024-03-08T08:43:26;24.90;;;5.22;;
45316;SDS011;31053;55.870;37.592;2024-03-08T08:46:31;8.57;;;4.50;;
45316;SDS011;31053;55.870;37.592;2024-03-08T08:49:36;7.60;;;4.60;;
45316;SDS011;31053;55.870;37.592;2024-03-08T08:52:42;9.18;;;4.22;;
45316;SDS011;31053;55.870;37.592;2024-03-08T08:55:49;6.03;;;3.28;;
45316;SDS011;31053;55.870;37.592;2024-03-08T08:58:54;10.80;;;4.80;;
45316;SDS011;31053;55.870;37.592;2024-03-08T09:01:58;9.52;;;4.82;;
45316;SDS011;31053;55.870;37.592;2024-03-08T09:05:03;9.55;;;4.35;;
45316;SDS011;31053;55.870;37.592;2024-03-08T09:08:08;7.25;;;3.25;;
45316;SDS011;31053;55.870;37.592;2024-03-08T09:11:12;7.38;;;4.03;;
45316;SDS011;31053;55.870;37.592;2024-03-08T09:14:17;10.07;;;3.45;;
45316;SDS011;31053;55.870;37.592;2024-03-08T09:17:21;7.00;;;3.25;;
45316;SDS011;31053;55.870;37.592;2024-03-08T09:20:26;9.77;;;4.07;;
45316;SDS011;31053;55.870;37.592;2024-03-08T09:23:31;9.27;;;5.22;;
45316;SDS011;31053;55.870;37.592;2024-03-08T09:26:36;11.40;;;4.55;;
45316;SDS011;31053;55.870;37.592;2024-03-08T09:29:41;7.82;;;3.95;;
45316;SDS011;31053;55.870;37.592;2024-03-08T09:32:47;10.65;;;4.65;;
45316;SDS011;31053;55.870;37.592;2024-03-08T09:35:52;14.02;;;6.00;;
45316;SDS011;31053;55.870;37.592;2024-03-08T09:38:57;10.55;;;5.03;;
45316;SDS011;31053;55.870;37.592;2024-03-08T09:42:02;7.93;;;3.90;;
45316;SDS011;31053;55.870;37.592;2024-03-08T09:45:11;9.30;;;4.25;;
45316;SDS011;31053;55.870;37.592;2024-03-08T09:48:16;6.30;;;3.50;;
45316;SDS011;31053;55.870;37.592;2024-03-08T09:51:27;10.93;;;3.75;;
45316;SDS011;31053;55.870;37.592;2024-03-08T09:54:33;8.38;;;4.53;;
45316;SDS011;31053;55.870;37.592;2024-03-08T09:57:39;7.07;;;3.85;;
45316;SDS011;31053;55.870;37.592;2024-03-08T10:00:44;11.02;;;4.68;;
45316;SDS011;31053;55.870;37.592;2024-03-08T10:03:49;7.00;;;4.20;;
45316;SDS011;31053;55.870;37.592;2024-03-08T10:06:54;10.07;;;5.05;;
45316;SDS011;31053;55.870;37.592;2024-03-08T10:09:59;7.88;;;4.35;;
45316;SDS011;31053;55.870;37.592;2024-03-08T10:13:07;13.10;;;5.53;;
45316;SDS011;31053;55.870;37.592;2024-03-08T10:16:13;9.30;;;4.55;;
45316;SDS011;31053;55.870;37.592;2024-03-08T10:19:18;9.30;;;4.18;;
45316;SDS011;31053;55.870;37.592;2024-03-08T10:22:23;9.40;;;4.03;;
45316;SDS011;31053;55.870;37.592;2024-03-08T10:25:29;11.18;;;5.80;;
45316;SDS011;31053;55.870;37.592;2024-03-08T10:28:34;22.75;;;10.20;;
45316;SDS011;31053;55.870;37.592;2024-03-08T10:31:39;12.27;;;6.25;;
45316;SDS011;31053;55.870;37.592;2024-03-08T10:34:43;24.58;;;9.43;;
45316;SDS011;31053;55.870;37.592;2024-03-08T10:37:49;30.17;;;13.38;;
45316;SDS011;31053;55.870;37.592;2024-03-08T10:41:03;17.67;;;7.60;;
45316;SDS011;31053;55.870;37.592;2024-03-08T10:47:29;18.52;;;7.07;;
45316;SDS011;31053;55.870;37.592;2024-03-08T10:50:34;12.82;;;5.45;;
45316;SDS011;31053;55.870;37.592;2024-03-08T10:53:39;12.95;;;6.30;;
45316;SDS011;31053;55.870;37.592;2024-03-08T10:56:46;10.52;;;5.45;;
45316;SDS011;31053;55.870;37.592;2024-03-08T10:59:53;10.10;;;4.93;;
45316;SDS011;31053;55.870;37.592;2024-03-08T11:03:00;10.48;;;5.57;;
45316;SDS011;31053;55.870;37.592;2024-03-08T11:06:09;11.40;;;4.63;;
45316;SDS011;31053;55.870;37.592;2024-03-08T11:09:36;8.07;;;3.80;;
45316;SDS011;31053;55.870;37.592;2024-03-08T11:12:42;9.32;;;4.88;;
45316;SDS011;31053;55.870;37.592;2024-03-08T11:15:47;15.32;;;8.50;;
45316;SDS011;31053;55.870;37.592;2024-03-08T11:18:53;30.57;;;11.63;;
45316;SDS011;31053;55.870;37.592;2024-03-08T11:21:59;28.73;;;11.50;;
45316;SDS011;31053;55.870;37.592;2024-03-08T11:25:05;12.13;;;6.28;;
45316;SDS011;31053;55.870;37.592;2024-03-08T11:31:28;12.45;;;6.20;;
45316;SDS011;31053;55.870;37.592;2024-03-08T11:34:33;20.90;;;7.65;;
45316;SDS011;31053;55.870;37.592;2024-03-08T11:37:38;14.85;;;5.53;;
45316;SDS011;31053;55.870;37.592;2024-03-08T11:40:44;11.65;;;5.55;;
45316;SDS011;31053;55.870;37.592;2024-03-08T11:44:01;12.20;;;6.38;;
45316;SDS011;31053;55.870;37.592;2024-03-08T11:47:09;11.32;;;5.78;;
45316;SDS011;31053;55.870;37.592;2024-03-08T11:50:14;19.90;;;7.95;;
45316;SDS011;31053;55.870;37.592;2024-03-08T11:53:19;11.82;;;6.63;;
45316;SDS011;31053;55.870;37.592;2024-03-08T11:56:24;8.90;;;4.75;;
45316;SDS011;31053;55.870;37.592;2024-03-08T12:03:13;9.57;;;4.40;;
45316;SDS011;31053;55.870;37.592;2024-03-08T12:06:18;13.55;;;6.15;;
45316;SDS011;31053;55.870;37.592;2024-03-08T12:09:23;17.15;;;7.65;;
45316;SDS011;31053;55.870;37.592;2024-03-08T12:12:28;14.77;;;6.68;;
45316;SDS011;31053;55.870;37.592;2024-03-08T12:15:32;8.88;;;4.88;;
45316;SDS011;31053;55.870;37.592;2024-03-08T12:18:38;19.20;;;5.85;;
45316;SDS011;31053;55.870;37.592;2024-03-08T12:21:43;11.73;;;5.07;;
45316;SDS011;31053;55.870;37.592;2024-03-08T12:25:05;9.65;;;4.30;;
45316;SDS011;31053;55.870;37.592;2024-03-08T12:28:14;10.77;;;4.95;;
45316;SDS011;31053;55.870;37.592;2024-03-08T12:31:19;13.68;;;5.45;;
45316;SDS011;31053;55.870;37.592;2024-03-08T12:34:24;12.27;;;5.30;;
45316;SDS011;31053;55.870;37.592;2024-03-08T12:37:31;9.23;;;4.32;;
45316;SDS011;31053;55.870;37.592;2024-03-08T12:40:36;10.65;;;4.97;;
45316;SDS011;31053;55.870;37.592;2024-03-08T12:43:45;9.65;;;4.47;;
45316;SDS011;31053;55.870;37.592;2024-03-08T12:46:55;13.80;;;7.07;;
45316;SDS011;31053;55.870;37.592;2024-03-08T12:50:03;8.60;;;4.65;;
45316;SDS011;31053;55.870;37.592;2024-03-08T12:53:08;9.02;;;4.57;;
45316;SDS011;31053;55.870;37.592;2024-03-08T12:56:13;17.00;;;7.07;;
45316;SDS011;31053;55.870;37.592;2024-03-08T12:59:41;18.15;;;6.82;;
45316;SDS011;31053;55.870;37.592;2024-03-08T13:02:46;12.57;;;5.88;;
45316;SDS011;31053;55.870;37.592;2024-03-08T13:05:51;12.23;;;5.47;;
45316;SDS011;31053;55.870;37.592;2024-03-08T13:08:56;11.10;;;4.70;;
45316;SDS011;31053;55.870;37.592;2024-03-08T13:12:01;12.63;;;4.40;;
45316;SDS011;31053;55.870;37.592;2024-03-08T13:15:06;8.48;;;4.28;;
45316;SDS011;31053;55.870;37.592;2024-03-08T13:18:12;8.18;;;3.47;;
45316;SDS011;31053;55.870;37.592;2024-03-08T13:21:20;7.63;;;3.03;;
45316;SDS011;31053;55.870;37.592;2024-03-08T13:24:27;8.65;;;3.05;;
45316;SDS011;31053;55.870;37.592;2024-03-08T13:27:33;13.65;;;4.88;;
45316;SDS011;31053;55.870;37.592;2024-03-08T13:30:38;11.75;;;3.55;;
45316;SDS011;31053;55.870;37.592;2024-03-08T13:33:43;7.10;;;3.30;;
45316;SDS011;31053;55.870;37.592;2024-03-08T13:36:50;15.55;;;7.47;;
45316;SDS011;31053;55.870;37.592;2024-03-08T13:39:56;19.05;;;7.75;;
45316;SDS011;31053;55.870;37.592;2024-03-08T13:43:01;21.50;;;8.75;;
45316;SDS011;31053;55.870;37.592;2024-03-08T13:46:07;25.00;;;9.93;;
45316;SDS011;31053;55.870;37.592;2024-03-08T13:52:18;36.85;;;13.60;;
45316;SDS011;31053;55.870;37.592;2024-03-08T13:55:23;12.45;;;5.93;;
45316;SDS011;31053;55.870;37.592;2024-03-08T13:58:31;13.18;;;6.57;;
45316;SDS011;31053;55.870;37.592;2024-03-08T14:01:36;21.23;;;8.52;;
45316;SDS011;31053;55.870;37.592;2024-03-08T14:04:41;28.95;;;11.90;;
45316;SDS011;31053;55.870;37.592;2024-03-08T14:07:46;20.80;;;8.27;;
45316;SDS011;31053;55.870;37.592;2024-03-08T14:10:53;17.23;;;7.45;;
45316;SDS011;31053;55.870;37.592;2024-03-08T14:13:58;17.60;;;7.60;;
45316;SDS011;31053;55.870;37.592;2024-03-08T14:17:03;11.70;;;5.72;;
45316;SDS011;31053;55.870;37.592;2024-03-08T14:20:08;16.23;;;7.28;;
45316;SDS011;31053;55.870;37.592;2024-03-08T14:23:13;15.30;;;4.20;;
45316;SDS011;31053;55.870;37.592;2024-03-08T14:26:18;13.02;;;4.45;;
45316;SDS011;31053;55.870;37.592;2024-03-08T14:29:25;8.93;;;4.63;;
45316;SDS011;31053;55.870;37.592;2024-03-08T14:32:33;10.48;;;3.80;;
45316;SDS011;31053;55.870;37.592;2024-03-08T14:35:38;6.82;;;3.67;;
45316;SDS011;31053;55.870;37.592;2024-03-08T14:38:43;8.32;;;4.05;;
45316;SDS011;31053;55.870;37.592;2024-03-08T14:41:48;11.68;;;4.45;;
45316;SDS011;31053;55.870;37.592;2024-03-08T14:44:54;17.42;;;4.85;;
45316;SDS011;31053;55.870;37.592;2024-03-08T14:47:58;7.57;;;3.72;;
45316;SDS011;31053;55.870;37.592;2024-03-08T14:51:03;8.95;;;3.95;;
45316;SDS011;31053;55.870;37.592;2024-03-08T14:54:08;13.02;;;3.92;;
45316;SDS011;31053;55.870;37.592;2024-03-08T14:57:14;15.18;;;3.53;;
45316;SDS011;31053;55.870;37.592;2024-03-08T15:00:19;11.93;;;4.95;;
45316;SDS011;31053;55.870;37.592;2024-03-08T15:03:30;16.10;;;7.18;;
45316;SDS011;31053;55.870;37.592;2024-03-08T15:06:37;33.83;;;12.23;;
45316;SDS011;31053;55.870;37.592;2024-03-08T15:09:41;18.50;;;7.63;;
45316;SDS011;31053;55.870;37.592;2024-03-08T15:12:47;16.67;;;7.20;;
45316;SDS011;31053;55.870;37.592;2024-03-08T15:15:52;23.48;;;5.57;;
45316;SDS011;31053;55.870;37.592;2024-03-08T15:19:00;18.20;;;7.47;;
45316;SDS011;31053;55.870;37.592;2024-03-08T15:22:05;12.10;;;5.57;;
45316;SDS011;31053;55.870;37.592;2024-03-08T15:25:13;11.55;;;4.45;;
45316;SDS011;31053;55.870;37.592;2024-03-08T15:28:30;8.05;;;4.65;;
45316;SDS011;31053;55.870;37.592;2024-03-08T15:31:40;11.52;;;5.22;;
45316;SDS011;31053;55.870;37.592;2024-03-08T15:34:47;14.90;;;7.45;;
45316;SDS011;31053;55.870;37.592;2024-03-08T15:37:55;41.75;;;14.20;;
45316;SDS011;31053;55.870;37.592;2024-03-08T15:41:06;59.03;;;23.25;;
45316;SDS011;31053;55.870;37.592;2024-03-08T15:44:49;24.98;;;8.48;;
45316;SDS011;31053;55.870;37.592;2024-03-08T15:47:54;23.08;;;8.90;;
45316;SDS011;31053;55.870;37.592;2024-03-08T15:51:20;18.70;;;8.93;;
45316;SDS011;31053;55.870;37.592;2024-03-08T15:54:28;16.75;;;7.40;;
45316;SDS011;31053;55.870;37.592;2024-03-08T15:57:35;11.80;;;5.43;;
45316;SDS011;31053;55.870;37.592;2024-03-08T16:00:40;22.63;;;9.32;;
45316;SDS011;31053;55.870;37.592;2024-03-08T16:03:54;22.77;;;9.25;;
45316;SDS011;31053;55.870;37.592;2024-03-08T16:07:02;38.45;;;14.85;;
45316;SDS011;31053;55.870;37.592;2024-03-08T16:10:16;26.08;;;11.48;;
45316;SDS011;31053;55.870;37.592;2024-03-08T16:13:24;15.35;;;6.55;;
45316;SDS011;31053;55.870;37.592;2024-03-08T16:16:31;38.83;;;14.85;;
45316;SDS011;31053;55.870;37.592;2024-03-08T16:19:36;45.95;;;15.93;;
45316;SDS011;31053;55.870;37.592;2024-03-08T16:22:49;43.97;;;17.55;;
45316;SDS011;31053;55.870;37.592;2024-03-08T16:25:58;24.98;;;10.68;;
45316;SDS011;31053;55.870;37.592;2024-03-08T16:29:03;22.52;;;8.75;;
45316;SDS011;31053;55.870;37.592;2024-03-08T16:32:11;15.05;;;6.72;;
45316;SDS011;31053;55.870;37.592;2024-03-08T16:35:18;57.58;;;22.40;;
45316;SDS011;31053;55.870;37.592;2024-03-08T16:38:23;18.90;;;7.20;;
45316;SDS011;31053;55.870;37.592;2024-03-08T16:41:31;43.97;;;15.50;;
45316;SDS011;31053;55.870;37.592;2024-03-08T16:44:40;32.40;;;12.70;;
45316;SDS011;31053;55.870;37.592;2024-03-08T16:47:50;28.67;;;12.88;;
45316;SDS011;31053;55.870;37.592;2024-03-08T16:50:55;18.90;;;7.78;;
45316;SDS011;31053;55.870;37.592;2024-03-08T16:54:14;12.02;;;5.95;;
45316;SDS011;31053;55.870;37.592;2024-03-08T16:57:19;10.75;;;5.40;;
45316;SDS011;31053;55.870;37.592;2024-03-08T17:00:42;11.50;;;5.22;;
45316;SDS011;31053;55.870;37.592;2024-03-08T17:03:47;13.15;;;5.95;;
45316;SDS011;31053;55.870;37.592;2024-03-08T17:06:53;10.05;;;3.40;;
45316;SDS011;31053;55.870;37.592;2024-03-08T17:10:20;8.38;;;4.07;;
45316;SDS011;31053;55.870;37.592;2024-03-08T17:14:47;12.60;;;4.63;;
45316;SDS011;31053;55.870;37.592;2024-03-08T17:22:32;10.05;;;4.35;;
45316;SDS011;31053;55.870;37.592;2024-03-08T17:25:37;15.55;;;6.07;;
45316;SDS011;31053;55.870;37.592;2024-03-08T17:31:48;11.25;;;4.15;;
45316;SDS011;31053;55.870;37.592;2024-03-08T17:34:54;10.45;;;3.65;;
45316;SDS011;31053;55.870;37.592;2024-03-08T17:37:59;10.40;;;4.88;;
45316;SDS011;31053;55.870;37.592;2024-03-08T17:41:04;16.08;;;6.97;;
45316;SDS011;31053;55.870;37.592;2024-03-08T17:44:10;25.13;;;7.28;;
45316;SDS011;31053;55.870;37.592;2024-03-08T17:47:16;24.80;;;10.32;;
45316;SDS011;31053;55.870;37.592;2024-03-08T17:50:24;18.15;;;7.75;;
45316;SDS011;31053;55.870;37.592;2024-03-08T17:53:30;35.33;;;12.15;;
45316;SDS011;31053;55.870;37.592;2024-03-08T17:56:35;15.82;;;7.05;;
45316;SDS011;31053;55.870;37.592;2024-03-08T17:59:43;9.85;;;4.53;;
45316;SDS011;31053;55.870;37.592;2024-03-08T18:02:54;9.85;;;3.88;;
45316;SDS011;31053;55.870;37.592;2024-03-08T18:06:29;9.48;;;2.75;;
45316;SDS011;31053;55.870;37.592;2024-03-08T18:18:38;4.68;;;1.63;;
45316;SDS011;31053;55.870;37.592;2024-03-08T18:27:37;2.63;;;1.45;;
45316;SDS011;31053;55.870;37.592;2024-03-08T18:30:52;3.33;;;1.33;;
45316;SDS011;31053;55.870;37.592;2024-03-08T18:34:01;3.13;;;1.40;;
45316;SDS011;31053;55.870;37.592;2024-03-08T18:37:10;2.33;;;1.30;;
45316;SDS011;31053;55.870;37.592;2024-03-08T18:44:42;3.58;;;1.50;;
45316;SDS011;31053;55.870;37.592;2024-03-08T18:54:33;2.00;;;1.10;;
45316;SDS011;31053;55.870;37.592;2024-03-08T18:57:41;2.85;;;1.10;;
45316;SDS011;31053;55.870;37.592;2024-03-08T19:00:50;2.47;;;1.40;;
45316;SDS011;31053;55.870;37.592;2024-03-08T19:03:55;2.65;;;1.15;;
45316;SDS011;31053;55.870;37.592;2024-03-08T19:07:00;5.22;;;1.77;;
45316;SDS011;31053;55.870;37.592;2024-03-08T19:14:18;3.58;;;1.42;;